Weather Models
Both GFS & NAM
00z 06z 12z 18z
24hr Precip
00z 06z 12z 18z
36hr Simulated radar
00z 06z 12z 18z
SKEWT Soundings
00z 12z
Current Conditions (Updated 2:30pm on 4/27/17)
Temperature
 81°
1.52
81°  
61°  
0
10
20
30
40
50
60
70
80
90
100
Dew Point
64°
64°  
57°  
-20
-10
0
10
20
30
40
50
60
70
80
Heat Index
83°
83°  
66°  
30
40
50
60
70
80
90
100
110
120
130
Heat Index
Humidity
56%
90% 
56% 
0
10
20
30
40
50
60
70
80
90
100
Barometer
29.84
   Falling
29.93  
29.84  
28.00
28.30
28.60
28.90
29.20
29.50
29.80
30.10
30.40
30.70
31.00
Temperature
Dew Point
Humidity
Pressure
Wind
7mph
 SW
Daily Rain
.00
.05
.10
.15
.20
.25
.30
.35
.40
.45
.50
Rain Today
 0.00" 
Month Rain
0.00
0.50
1.00
1.50
2.00
2.50
3.00
3.50
4.00
4.50
5.00
Month Rain
 3.17" 
Year Rain
0.00
2.50
5.00
7.50
10.00
12.50
15.00
17.50
20.00
22.50
25.00
Year Rain
 11.35" 
Sun & Moon Data
Sunrise 6:04am
Sunset 7:50pm
Moonrise 7:13am
Moonset 9:23pm
Moon % 1%
Other Rain Data
Past Hour 0.00 Past 24 Hours 0.00
Past 3 Hours 0.00 Past 7 Days 1.06
Past 6 Hours 0.00
Cloud Height
4289


Current Front Map
Current Satellite map
7 Day Forecast
NWS Forecast for Philadelphia PA
National Weather Service Forecast for: Philadelphia PA
Issued by: National Weather Service Philadelphia, PA
Updated: 12:29 pm EDT Apr 27, 2017

Philadelphia
 
This
Afternoon
This Afternoon: Mostly sunny, with a high near 80. South wind around 9 mph.
Mostly Sunny

Tonight

Tonight: A chance of showers and thunderstorms, mainly after 3am.  Increasing clouds, with a low around 62. Southeast wind 5 to 8 mph.  Chance of precipitation is 30%. New rainfall amounts of less than a tenth of an inch, except higher amounts possible in thunderstorms.
Chance
T-storms

Friday

Friday: A chance of showers and thunderstorms before 8am.  Mostly cloudy, then gradually becoming sunny, with a high near 81. West wind around 7 mph.  Chance of precipitation is 30%. New precipitation amounts of less than a tenth of an inch, except higher amounts possible in thunderstorms.
Chance
T-storms then
Mostly Sunny
Friday
Night
Friday Night: Partly cloudy, with a low around 63. Light south wind.
Partly Cloudy

Saturday

Saturday: A slight chance of showers and thunderstorms after 2pm.  Partly sunny, with a high near 86. South wind 6 to 11 mph.  Chance of precipitation is 20%.
Partly Sunny
then Slight
Chance
T-storms
Saturday
Night
Saturday Night: A slight chance of showers and thunderstorms.  Mostly cloudy, with a low around 62. Chance of precipitation is 20%.
Slight Chance
T-storms

Sunday

Sunday: Partly sunny, with a high near 68.
Partly Sunny

Sunday
Night
Sunday Night: A chance of showers.  Mostly cloudy, with a low around 58. Chance of precipitation is 30%.
Chance
Showers

Monday

Monday: A chance of showers and thunderstorms.  Mostly cloudy, with a high near 80. Chance of precipitation is 40%.
Chance
T-storms

Hi 80 °F Lo 62 °F Hi 81 °F Lo 63 °F Hi 86 °F Lo 62 °F Hi 68 °F Lo 58 °F Hi 80 °F

 

This Afternoon
 
Mostly sunny, with a high near 80. South wind around 9 mph.
Tonight
 
A chance of showers and thunderstorms, mainly after 3am. Increasing clouds, with a low around 62. Southeast wind 5 to 8 mph. Chance of precipitation is 30%. New rainfall amounts of less than a tenth of an inch, except higher amounts possible in thunderstorms.
Friday
 
A chance of showers and thunderstorms before 8am. Mostly cloudy, then gradually becoming sunny, with a high near 81. West wind around 7 mph. Chance of precipitation is 30%. New precipitation amounts of less than a tenth of an inch, except higher amounts possible in thunderstorms.
Friday Night
 
Partly cloudy, with a low around 63. Light south wind.
Saturday
 
A slight chance of showers and thunderstorms after 2pm. Partly sunny, with a high near 86. South wind 6 to 11 mph. Chance of precipitation is 20%.
Saturday Night
 
A slight chance of showers and thunderstorms. Mostly cloudy, with a low around 62. Chance of precipitation is 20%.
Sunday
 
Partly sunny, with a high near 68.
Sunday Night
 
A chance of showers. Mostly cloudy, with a low around 58. Chance of precipitation is 30%.
Monday
 
A chance of showers and thunderstorms. Mostly cloudy, with a high near 80. Chance of precipitation is 40%.
Monday Night
 
Showers likely and possibly a thunderstorm. Mostly cloudy, with a low around 62. Chance of precipitation is 60%.
Tuesday
 
Mostly sunny, with a high near 71.
Tuesday Night
 
Mostly clear, with a low around 52.
Wednesday
 
Mostly sunny, with a high near 72.

 

Forecast from NOAA-NWS for Philadelphia PA.

Area Weather Current Conditions
Nearby METAR Reports

KPHL - Philadelphia, Pennsylvania
Updated: Thu, 27-Apr-2017 1:54pm EDT
Mostly Cloudy
Mostly Cloudy
 Wind from S
Wind: S 13 mph , 20 km/h
Temperature: 79°F , 26°C
Dew Point: 63°F , 17°C
Humidity: 58%
Barometer: 29.84 inHg , 1010.5 hPa
Clouds: Mostly Cloudy
Visibility: 10 miles , 16 km
Cloud details: Few Clouds 3500 ft
Few Clouds 4500 ft
Partly Cloudy 5500 ft
Mostly Cloudy 30000 ft
2017/04/27 17:54 KPHL 271754Z 19011KT 10SM FEW035 FEW045 SCT055 BKN300 26/17 A2984 RMK AO2 SLP105 T02610172 10261 20167 58015
KMPO - Mt. Pocono, Pennsylvania
Updated: Thu, 27-Apr-2017 1:53pm EDT
Overcast
Overcast
 Wind from S
Wind: S 9 mph , 15 km/h
Temperature: 64°F , 18°C
Dew Point: 59°F , 15°C
Humidity: 83%
Barometer: 29.88 inHg , 1011.9 hPa
Clouds: Overcast
Visibility: 10 miles , 16 km
Cloud details: Overcast 1500 ft
2017/04/27 17:53 KMPO 271753Z AUTO 17008KT 10SM OVC015 18/15 A2988 RMK AO2 SLP114 T01830150 10183 20122 58007
 
KACY - Atlantic City, New Jersey
Updated: Thu, 27-Apr-2017 2:06pm EDT
Haze, Overcast
Haze, Overcast
 Wind from ESE
Wind: ESE 13 mph , 20 km/h
Temperature: 66°F , 19°C
Dew Point: 61°F , 16°C
Humidity: 83%
Barometer: 29.89 inHg , 1012.2 hPa
Summary: Haze
Clouds: Overcast
Visibility: 2 1/2 miles , 2 km
Cloud details: Overcast 600 ft
2017/04/27 18:06 KACY 271806Z 12011KT 2 1/2SM HZ OVC006 19/16 A2989 RMK AO2 SFC VIS 5 CIG 005V009 T01940161
KMIV - Millville, New Jersey
Updated: Thu, 27-Apr-2017 1:54pm EDT
Clear
Clear
 Wind from ESE
Wind: ESE 10 mph , 17 km/h
Temperature: 75°F , 24°C
Dew Point: 66°F , 19°C
Humidity: 74%
Barometer: 29.86 inHg , 1011.2 hPa
Clouds: Clear
Visibility: 10 miles , 16 km
2017/04/27 17:54 KMIV 271754Z AUTO 12009KT 10SM CLR 24/19 A2986 RMK AO2 SLP109 T02390189 10244 20150 58012
 
KWWD - Wildwood, New Jersey
Updated: Thu, 27-Apr-2017 1:56pm EDT
Mostly Cloudy
Mostly Cloudy
 Wind from SE
Wind: SE 10 mph , 17 km/h
Temperature: 66°F , 19°C
Dew Point: 61°F , 16°C
Humidity: 83%
Barometer: 29.88 inHg , 1011.9 hPa
Clouds: Mostly Cloudy
Visibility: 10 miles , 16 km
Cloud details: Mostly Cloudy 6500 ft
2017/04/27 17:56 KWWD 271756Z AUTO 13009KT 10SM BKN065 19/16 A2988 RMK AO2 SLP121 T01890161 10194 20144 58010
KDOV - Dover Afb, Delaware
Updated: Thu, 27-Apr-2017 1:58pm EDT
Mostly Cloudy
Mostly Cloudy
 Wind from ESE
Wind: ESE 8 mph , 13 km/h
Temperature: 64°F , 18°C
Dew Point: 59°F , 15°C
Humidity: 83%
Barometer: 29.84 inHg , 1010.5 hPa
Clouds: Mostly Cloudy
Visibility: 10 miles , 16 km
Cloud details: Few Clouds 11000 ft
Partly Cloudy 15000 ft
Mostly Cloudy 21000 ft
2017/04/27 17:58 KDOV 271758Z 11007KT 10SM FEW110 SCT150 BKN210 18/15 A2984 RMK AO2A SLP108 T01840154 10188 20148 57012 $
Severe Weather Map
Recent Forum Post
[Philadelphia] Request for Philly Snow Data by JC February 14, 2017, 08:42:21 PM
[Philadelphia] 2016 -2017 Winter snow forecast by JC December 01, 2016, 04:56:31 AM
[Philadelphia] Winter forecast 2016-2017 by xyonist November 30, 2016, 01:14:08 PM
[Philadelphia] 102.7 last Saturday by JC August 20, 2016, 03:26:22 AM
[Philadelphia] 2015 -2016 Winter snow forecast by JC April 19, 2016, 09:42:40 AM
[Philadelphia] Latest Models on Weekend Storm (Photos) by JC January 23, 2016, 12:01:03 PM
[Philadelphia] Possible large snow storm for end of week ? by JC January 21, 2016, 09:17:47 AM
[Philadelphia] El Nino! by vicente6 September 16, 2015, 01:57:08 AM